Time;durP1;ratioP1;P1;durP2;ratioP2;P2;SDS_P1;SDS_P2;PMS_P1;PMS_P2;Temp;Humidity;BMP_temperature;BMP_pressure;BME280_temperature;BME280_humidity;BME280_pressure;Samples;Min_cycle;Max_cycle;Signal;HPM_P1;HPM_P2
2021/10/18 00:01:23;;;;;;;36.15;19.73;;;;;;;;;;4917596;29;20263;-69
2021/10/18 00:03:50;;;;;;;37.15;19.75;;;;;;;;;;4917403;29;20500;-69
2021/10/18 00:06:17;;;;;;;33.78;18.30;;;;;;;;;;4917439;29;20056;-69
2021/10/18 00:08:44;;;;;;;35.63;18.58;;;;;;;;;;4917349;29;20052;-70
2021/10/18 00:11:11;;;;;;;36.95;18.77;;;;;;;;;;4917080;29;20111;-70
2021/10/18 00:13:57;;;;;;;40.05;19.27;;;;;;;;;;4917282;29;20523;-70
2021/10/18 00:16:24;;;;;;;40.78;19.80;;;;;;;;;;4917341;29;20048;-69
2021/10/18 00:18:50;;;;;;;39.40;20.38;;;;;;;;;;4917157;29;20056;-69
2021/10/18 00:21:17;;;;;;;38.92;18.75;;;;;;;;;;4916997;29;20496;-69
2021/10/18 00:23:44;;;;;;;40.63;19.55;;;;;;;;;;4917058;29;20044;-70
2021/10/18 00:26:10;;;;;;;41.53;20.45;;;;;;;;;;4916992;29;20508;-69
2021/10/18 00:28:37;;;;;;;39.75;19.45;;;;;;;;;;4917162;29;20111;-69
2021/10/18 00:31:03;;;;;;;38.17;19.45;;;;;;;;;;4916838;29;20060;-69
2021/10/18 00:33:30;;;;;;;42.00;19.42;;;;;;;;;;4916597;29;20048;-70
2021/10/18 00:35:56;;;;;;;41.30;19.65;;;;;;;;;;4916904;29;20474;-69
2021/10/18 00:38:23;;;;;;;42.28;20.45;;;;;;;;;;4916819;29;20202;-69
2021/10/18 00:40:50;;;;;;;40.20;19.55;;;;;;;;;;4916766;29;20428;-69
2021/10/18 00:43:16;;;;;;;39.20;19.02;;;;;;;;;;4916685;29;20052;-69
2021/10/18 00:45:44;;;;;;;38.75;20.00;;;;;;;;;;4916870;29;20088;-69
2021/10/18 00:48:10;;;;;;;44.33;20.25;;;;;;;;;;4916698;29;20075;-69
2021/10/18 00:50:37;;;;;;;41.80;20.02;;;;;;;;;;4916824;29;20106;-69
2021/10/18 00:53:03;;;;;;;41.35;19.45;;;;;;;;;;4903125;29;20460;-69
2021/10/18 00:55:30;;;;;;;40.17;19.95;;;;;;;;;;4916594;29;20104;-69
2021/10/18 00:57:57;;;;;;;39.63;19.45;;;;;;;;;;4884121;29;20468;-69
2021/10/18 01:00:23;;;;;;;39.35;19.48;;;;;;;;;;4916424;29;20116;-69
2021/10/18 01:02:50;;;;;;;36.58;19.08;;;;;;;;;;4916075;29;20468;-69
2021/10/18 01:05:18;;;;;;;42.33;20.20;;;;;;;;;;4916238;29;20062;-69
2021/10/18 01:07:46;;;;;;;40.97;18.90;;;;;;;;;;4915115;29;20404;-69
2021/10/18 01:10:12;;;;;;;38.33;19.67;;;;;;;;;;4915929;29;20052;-69
2021/10/18 01:12:39;;;;;;;41.22;19.42;;;;;;;;;;4915807;29;20051;-69
2021/10/18 01:15:06;;;;;;;39.78;19.25;;;;;;;;;;4916131;29;20056;-69
2021/10/18 01:17:32;;;;;;;44.80;22.05;;;;;;;;;;4916208;29;20056;-69
2021/10/18 01:19:59;;;;;;;45.13;21.80;;;;;;;;;;4915910;29;20124;-69
2021/10/18 01:22:28;;;;;;;45.13;22.17;;;;;;;;;;4915961;29;20048;-69
2021/10/18 01:24:54;;;;;;;48.40;21.73;;;;;;;;;;4915977;29;20056;-69
2021/10/18 01:27:21;;;;;;;42.95;20.30;;;;;;;;;;4916102;29;20052;-69
2021/10/18 01:29:48;;;;;;;47.55;22.13;;;;;;;;;;4915736;29;20056;-69
2021/10/18 01:32:15;;;;;;;47.63;21.45;;;;;;;;;;4898970;29;20052;-69
2021/10/18 01:34:41;;;;;;;48.22;21.30;;;;;;;;;;4915914;29;20056;-69
2021/10/18 01:37:08;;;;;;;49.80;20.85;;;;;;;;;;4915835;29;20056;-69
2021/10/18 01:39:34;;;;;;;48.70;21.73;;;;;;;;;;4883504;29;20051;-69
2021/10/18 01:42:01;;;;;;;49.88;21.67;;;;;;;;;;4915495;29;20084;-69
2021/10/18 01:44:28;;;;;;;46.42;22.23;;;;;;;;;;4915751;29;20100;-69
2021/10/18 01:46:54;;;;;;;45.03;20.67;;;;;;;;;;4915564;29;20503;-68
2021/10/18 01:49:21;;;;;;;48.47;22.48;;;;;;;;;;4914852;29;20059;-69
2021/10/18 01:51:48;;;;;;;55.58;23.13;;;;;;;;;;4914371;29;20060;-69
2021/10/18 01:54:14;;;;;;;55.67;21.92;;;;;;;;;;4915383;29;20418;-69
2021/10/18 01:56:41;;;;;;;55.13;20.77;;;;;;;;;;4914676;29;20511;-69
2021/10/18 01:59:08;;;;;;;47.00;21.02;;;;;;;;;;4915724;29;20089;-69
2021/10/18 02:01:35;;;;;;;47.88;21.58;;;;;;;;;;4913770;29;20115;-69
2021/10/18 02:04:02;;;;;;;54.97;21.45;;;;;;;;;;4915372;29;20514;-69
2021/10/18 02:06:28;;;;;;;57.42;21.45;;;;;;;;;;4915547;29;20111;-69
2021/10/18 02:08:55;;;;;;;49.78;21.75;;;;;;;;;;4915489;29;20100;-69
2021/10/18 02:11:21;;;;;;;63.47;21.58;;;;;;;;;;4915080;29;20111;-69
2021/10/18 02:13:48;;;;;;;54.47;22.23;;;;;;;;;;4915379;29;20044;-69
2021/10/18 02:16:14;;;;;;;51.60;21.05;;;;;;;;;;4915635;29;20052;-69
2021/10/18 02:18:41;;;;;;;51.38;22.05;;;;;;;;;;4915268;29;20496;-68
2021/10/18 02:21:08;;;;;;;55.60;21.83;;;;;;;;;;4918087;29;20495;-69
2021/10/18 02:23:34;;;;;;;46.28;20.58;;;;;;;;;;4919237;29;20103;-69
2021/10/18 02:26:01;;;;;;;58.13;21.88;;;;;;;;;;4919244;29;20131;-69
2021/10/18 02:28:28;;;;;;;62.80;21.95;;;;;;;;;;4919203;29;20048;-69
2021/10/18 02:30:54;;;;;;;56.08;23.85;;;;;;;;;;4919084;29;20052;-69
2021/10/18 02:33:21;;;;;;;53.67;21.20;;;;;;;;;;4918755;29;20056;-69
2021/10/18 02:35:48;;;;;;;56.97;22.63;;;;;;;;;;4919009;29;20424;-69
2021/10/18 02:38:15;;;;;;;52.83;21.55;;;;;;;;;;4918910;29;20056;-69
2021/10/18 02:40:42;;;;;;;52.72;21.60;;;;;;;;;;4918944;29;20063;-69
2021/10/18 02:43:09;;;;;;;55.08;23.35;;;;;;;;;;4918422;29;20056;-69
2021/10/18 02:45:36;;;;;;;57.10;23.80;;;;;;;;;;4918972;29;20052;-69
2021/10/18 02:48:02;;;;;;;52.38;20.85;;;;;;;;;;4918770;29;20477;-69
2021/10/18 02:50:29;;;;;;;54.22;22.63;;;;;;;;;;4918696;29;20048;-69
2021/10/18 02:52:57;;;;;;;54.67;22.33;;;;;;;;;;4918271;29;20104;-69
2021/10/18 02:55:23;;;;;;;47.38;21.33;;;;;;;;;;4918711;29;20507;-69
2021/10/18 02:57:50;;;;;;;51.88;21.88;;;;;;;;;;4918621;29;20048;-69
2021/10/18 03:00:17;;;;;;;51.08;22.35;;;;;;;;;;4918676;29;20052;-69
2021/10/18 03:02:43;;;;;;;48.28;22.85;;;;;;;;;;4918284;29;20052;-69
2021/10/18 03:05:10;;;;;;;45.40;21.10;;;;;;;;;;4918592;29;20151;-69
2021/10/18 03:07:37;;;;;;;52.50;22.15;;;;;;;;;;4918826;29;20048;-69
2021/10/18 03:10:04;;;;;;;49.83;22.95;;;;;;;;;;4918238;29;20059;-69
2021/10/18 03:12:32;;;;;;;49.17;21.77;;;;;;;;;;4918049;29;20048;-69
2021/10/18 03:14:59;;;;;;;44.97;20.30;;;;;;;;;;4918238;29;20074;-69
2021/10/18 03:17:27;;;;;;;47.42;21.48;;;;;;;;;;4918160;29;20104;-69
2021/10/18 03:19:53;;;;;;;46.88;21.38;;;;;;;;;;4917809;29;20115;-69
2021/10/18 03:22:20;;;;;;;47.08;21.05;;;;;;;;;;4918023;29;20392;-69
2021/10/18 03:24:46;;;;;;;45.75;21.02;;;;;;;;;;4918257;29;20404;-69
2021/10/18 03:27:13;;;;;;;45.65;20.90;;;;;;;;;;4918358;29;20060;-69
2021/10/18 03:29:40;;;;;;;44.72;20.50;;;;;;;;;;4918132;29;20052;-69
2021/10/18 03:32:06;;;;;;;45.33;20.30;;;;;;;;;;4917324;29;20056;-69
2021/10/18 03:34:33;;;;;;;45.67;21.52;;;;;;;;;;4901657;29;20093;-69
2021/10/18 03:37:00;;;;;;;44.08;19.95;;;;;;;;;;4918319;29;20080;-69
2021/10/18 03:39:26;;;;;;;50.03;22.02;;;;;;;;;;4917822;29;20052;-69
2021/10/18 03:41:53;;;;;;;53.95;23.02;;;;;;;;;;4917746;29;20067;-69
2021/10/18 03:44:19;;;;;;;46.78;22.00;;;;;;;;;;4917952;29;20467;-69
2021/10/18 03:46:46;;;;;;;43.80;19.60;;;;;;;;;;4917870;29;20052;-69
2021/10/18 03:49:13;;;;;;;41.65;19.77;;;;;;;;;;4917845;29;20052;-69
2021/10/18 03:51:40;;;;;;;47.28;20.83;;;;;;;;;;4917301;29;20602;-69
2021/10/18 03:54:07;;;;;;;38.63;18.73;;;;;;;;;;4917447;29;20080;-69
2021/10/18 03:56:33;;;;;;;36.20;17.00;;;;;;;;;;4917732;29;20056;-69
2021/10/18 03:59:00;;;;;;;42.33;19.30;;;;;;;;;;4917507;29;20080;-69
2021/10/18 04:01:27;;;;;;;41.33;18.33;;;;;;;;;;4917423;29;20052;-69
2021/10/18 04:03:53;;;;;;;40.30;17.85;;;;;;;;;;4917510;29;20052;-69
2021/10/18 04:06:21;;;;;;;39.50;17.77;;;;;;;;;;4917613;29;20056;-69
2021/10/18 04:08:50;;;;;;;47.33;19.85;;;;;;;;;;4917438;29;20056;-69
2021/10/18 04:11:17;;;;;;;42.40;18.65;;;;;;;;;;4917061;29;20571;-69
2021/10/18 04:13:43;;;;;;;44.75;18.73;;;;;;;;;;4917186;29;20052;-69
2021/10/18 04:16:10;;;;;;;48.38;19.58;;;;;;;;;;4917324;29;20056;-69
2021/10/18 04:18:37;;;;;;;47.53;18.27;;;;;;;;;;4917958;29;20062;-69
2021/10/18 04:21:05;;;;;;;49.13;19.25;;;;;;;;;;4917123;29;20107;-69
2021/10/18 04:23:33;;;;;;;48.38;20.05;;;;;;;;;;4917047;29;20068;-70
2021/10/18 04:26:00;;;;;;;47.63;19.90;;;;;;;;;;4917113;29;20500;-69
2021/10/18 04:28:27;;;;;;;42.00;19.00;;;;;;;;;;4917225;29;20088;-70
2021/10/18 04:30:53;;;;;;;42.05;18.65;;;;;;;;;;4917005;29;20504;-69
2021/10/18 04:33:20;;;;;;;44.33;17.77;;;;;;;;;;4916594;29;20044;-69
2021/10/18 04:35:47;;;;;;;44.40;19.75;;;;;;;;;;4916970;29;20084;-69
2021/10/18 04:38:14;;;;;;;44.53;18.38;;;;;;;;;;4917108;29;20056;-69
2021/10/18 04:40:40;;;;;;;45.10;19.83;;;;;;;;;;4916904;29;20059;-69
2021/10/18 04:43:07;;;;;;;45.88;19.42;;;;;;;;;;4915910;29;20112;-69
2021/10/18 04:45:33;;;;;;;42.55;17.58;;;;;;;;;;4917133;29;20056;-69
2021/10/18 04:48:00;;;;;;;38.03;17.88;;;;;;;;;;4916571;29;20056;-69
2021/10/18 04:50:27;;;;;;;40.78;18.27;;;;;;;;;;4916809;29;20056;-69
2021/10/18 04:52:53;;;;;;;42.03;18.60;;;;;;;;;;4916371;29;20526;-70
2021/10/18 04:55:20;;;;;;;45.92;18.70;;;;;;;;;;4916787;29;20088;-70
2021/10/18 04:57:51;;;;;;;44.97;19.42;;;;;;;;;;4916826;29;20110;-69
2021/10/18 05:00:18;;;;;;;44.13;19.25;;;;;;;;;;4916354;29;20059;-69
2021/10/18 05:02:45;;;;;;;49.30;19.50;;;;;;;;;;4916270;29;20048;-69
2021/10/18 05:05:12;;;;;;;46.20;19.52;;;;;;;;;;4916853;29;20044;-69
2021/10/18 05:07:39;;;;;;;51.95;20.13;;;;;;;;;;4916412;29;20063;-70
2021/10/18 05:10:14;;;;;;;48.28;20.48;;;;;;;;;;4916298;29;20081;-70
2021/10/18 05:12:41;;;;;;;49.50;20.50;;;;;;;;;;4915881;29;20079;-70
2021/10/18 05:15:08;;;;;;;45.65;19.13;;;;;;;;;;4914710;29;20048;-70
2021/10/18 05:17:35;;;;;;;55.15;20.85;;;;;;;;;;4916147;29;20111;-70
2021/10/18 05:20:02;;;;;;;51.03;20.65;;;;;;;;;;4916108;29;20052;-70
2021/10/18 05:22:28;;;;;;;48.40;19.35;;;;;;;;;;4915929;29;20099;-70
2021/10/18 05:24:55;;;;;;;48.72;19.77;;;;;;;;;;4899046;29;20052;-70
2021/10/18 05:27:22;;;;;;;51.58;21.40;;;;;;;;;;4915924;29;20060;-69
2021/10/18 05:29:48;;;;;;;48.42;20.77;;;;;;;;;;4916144;29;20048;-69
2021/10/18 05:32:15;;;;;;;47.88;20.85;;;;;;;;;;4915768;29;20060;-69
2021/10/18 05:34:41;;;;;;;48.08;20.08;;;;;;;;;;4915835;29;20052;-70
2021/10/18 05:37:08;;;;;;;53.22;20.85;;;;;;;;;;4915856;29;20471;-70
2021/10/18 05:39:35;;;;;;;53.20;21.80;;;;;;;;;;4915873;29;20107;-69
2021/10/18 05:42:01;;;;;;;48.13;19.98;;;;;;;;;;4915631;29;20048;-69
2021/10/18 05:44:28;;;;;;;49.45;20.08;;;;;;;;;;4915536;29;20560;-69
2021/10/18 05:46:54;;;;;;;46.83;19.98;;;;;;;;;;4915770;29;20107;-70
2021/10/18 05:49:21;;;;;;;50.95;20.30;;;;;;;;;;4915796;29;20567;-70
2021/10/18 05:51:48;;;;;;;50.28;21.55;;;;;;;;;;4915541;29;20048;-70
2021/10/18 05:54:14;;;;;;;52.78;21.17;;;;;;;;;;4898548;29;20048;-69
2021/10/18 05:56:41;;;;;;;50.63;22.13;;;;;;;;;;4915659;29;20059;-70
2021/10/18 05:59:07;;;;;;;50.22;21.50;;;;;;;;;;4915576;29;20559;-69
2021/10/18 06:01:34;;;;;;;48.13;21.45;;;;;;;;;;4915478;29;20096;-69
2021/10/18 06:04:03;;;;;;;48.70;20.77;;;;;;;;;;4916049;29;20100;-70
2021/10/18 06:06:35;;;;;;;46.15;20.02;;;;;;;;;;4915918;29;20056;-68
2021/10/18 06:09:11;;;;;;;39.75;19.60;;;;;;;;;;4915616;29;20590;-68
2021/10/18 06:11:37;;;;;;;46.83;20.83;;;;;;;;;;4915222;29;20472;-68
2021/10/18 06:14:04;;;;;;;40.50;20.02;;;;;;;;;;4913376;29;20056;-68
2021/10/18 06:16:30;;;;;;;43.72;19.65;;;;;;;;;;4913775;29;20052;-69
2021/10/18 06:18:57;;;;;;;39.35;17.40;;;;;;;;;;4913620;29;20487;-69
2021/10/18 06:21:24;;;;;;;38.28;19.38;;;;;;;;;;4913272;29;20052;-68
2021/10/18 06:23:51;;;;;;;42.67;19.50;;;;;;;;;;4913473;29;20690;-68
2021/10/18 06:26:17;;;;;;;37.35;20.33;;;;;;;;;;4913021;29;20147;-69
2021/10/18 06:28:44;;;;;;;43.75;19.60;;;;;;;;;;4913604;29;20119;-68
2021/10/18 06:31:11;;;;;;;38.08;19.08;;;;;;;;;;4913379;29;20060;-68
2021/10/18 06:33:37;;;;;;;38.67;18.42;;;;;;;;;;4913264;29;20090;-67
2021/10/18 06:36:04;;;;;;;40.80;18.98;;;;;;;;;;4913475;29;20052;-68
2021/10/18 06:38:31;;;;;;;42.03;18.48;;;;;;;;;;4913583;29;20056;-67
2021/10/18 06:40:58;;;;;;;41.33;19.27;;;;;;;;;;4913043;29;20151;-67
2021/10/18 06:43:25;;;;;;;38.95;18.10;;;;;;;;;;4913281;29;20468;-68
2021/10/18 06:45:51;;;;;;;42.97;21.10;;;;;;;;;;4913410;29;20084;-68
2021/10/18 06:48:18;;;;;;;44.88;20.77;;;;;;;;;;4913584;29;20056;-68
2021/10/18 06:50:46;;;;;;;38.70;18.17;;;;;;;;;;4913438;29;20060;-67
2021/10/18 06:53:27;;;;;;;43.22;19.98;;;;;;;;;;4912646;29;20056;-68
2021/10/18 06:55:54;;;;;;;42.25;19.33;;;;;;;;;;4913280;29;20052;-68
2021/10/18 06:58:21;;;;;;;38.08;18.92;;;;;;;;;;4913485;29;20108;-68
2021/10/18 07:00:50;;;;;;;36.08;18.13;;;;;;;;;;4913331;29;20095;-68
2021/10/18 07:03:17;;;;;;;41.72;19.00;;;;;;;;;;4913036;29;20052;-68
2021/10/18 07:05:43;;;;;;;36.45;18.90;;;;;;;;;;4912912;29;20056;-68
2021/10/18 07:08:10;;;;;;;41.22;19.23;;;;;;;;;;4915953;29;20588;-68
2021/10/18 07:10:36;;;;;;;37.47;18.83;;;;;;;;;;4917060;29;20135;-68
2021/10/18 07:13:05;;;;;;;40.10;18.13;;;;;;;;;;4916504;29;20067;-68
2021/10/18 07:15:32;;;;;;;36.80;18.35;;;;;;;;;;4918312;29;20499;-68
2021/10/18 07:17:58;;;;;;;39.20;18.98;;;;;;;;;;4917515;29;20103;-68
2021/10/18 07:20:25;;;;;;;36.05;17.55;;;;;;;;;;4917809;29;20519;-68
2021/10/18 07:22:56;;;;;;;33.20;17.75;;;;;;;;;;4917562;29;20052;-68
2021/10/18 07:25:23;;;;;;;34.47;17.48;;;;;;;;;;4900117;29;20100;-72
2021/10/18 07:27:50;;;;;;;31.45;17.83;;;;;;;;;;4913454;29;20140;-72
2021/10/18 07:30:18;;;;;;;34.45;17.02;;;;;;;;;;4915164;29;20498;-70
2021/10/18 07:32:45;;;;;;;34.28;18.65;;;;;;;;;;4916350;29;20515;-70
2021/10/18 07:35:14;;;;;;;38.97;18.88;;;;;;;;;;4916410;29;20104;-70
2021/10/18 07:37:43;;;;;;;29.90;17.58;;;;;;;;;;4916446;29;20059;-69
2021/10/18 07:40:13;;;;;;;35.55;18.42;;;;;;;;;;4916535;29;20535;-70
2021/10/18 07:42:40;;;;;;;31.80;17.48;;;;;;;;;;4913127;29;20055;-70
2021/10/18 07:45:07;;;;;;;33.72;17.90;;;;;;;;;;4916728;29;20056;-70
2021/10/18 07:47:34;;;;;;;31.33;17.42;;;;;;;;;;4916686;29;20067;-70
2021/10/18 07:50:00;;;;;;;38.95;18.40;;;;;;;;;;4916082;29;20052;-71
2021/10/18 07:52:27;;;;;;;32.00;17.23;;;;;;;;;;4916314;29;20107;-69
2021/10/18 07:55:01;;;;;;;33.70;17.75;;;;;;;;;;4916333;29;20060;-70
2021/10/18 07:57:29;;;;;;;31.83;17.98;;;;;;;;;;4916290;29;20127;-71
2021/10/18 07:59:55;;;;;;;33.05;17.02;;;;;;;;;;4916661;29;20056;-69
2021/10/18 08:02:22;;;;;;;28.52;16.23;;;;;;;;;;4915949;29;20104;-71
2021/10/18 08:04:49;;;;;;;30.98;18.33;;;;;;;;;;4916551;29;20052;-70
2021/10/18 08:07:25;;;;;;;33.60;18.42;;;;;;;;;;4916825;29;20095;-73
2021/10/18 08:09:51;;;;;;;29.52;18.02;;;;;;;;;;4916141;29;20111;-70
2021/10/18 08:12:18;;;;;;;27.95;17.92;;;;;;;;;;4899296;29;20068;-72
2021/10/18 08:14:45;;;;;;;28.80;16.15;;;;;;;;;;4916233;29;20056;-69
2021/10/18 08:17:12;;;;;;;26.13;16.83;;;;;;;;;;4914395;29;20563;-69
2021/10/18 08:19:38;;;;;;;27.85;17.77;;;;;;;;;;4915803;29;20096;-70
2021/10/18 08:22:05;;;;;;;24.83;16.35;;;;;;;;;;4915908;29;20052;-68
2021/10/18 08:24:31;;;;;;;30.33;19.27;;;;;;;;;;4915884;29;20484;-69
2021/10/18 08:26:58;;;;;;;27.25;18.02;;;;;;;;;;4915889;29;20088;-69
2021/10/18 08:29:24;;;;;;;27.17;17.52;;;;;;;;;;4915908;29;20104;-69
2021/10/18 08:31:51;;;;;;;30.20;17.48;;;;;;;;;;4916046;29;20060;-70
2021/10/18 08:34:18;;;;;;;22.45;16.00;;;;;;;;;;4915742;29;20499;-70
2021/10/18 08:36:44;;;;;;;26.40;17.55;;;;;;;;;;4915434;29;20055;-70
2021/10/18 08:41:54;;;;;;;23.98;17.75;;;;;;;;;;4912368;29;20056;-70
2021/10/18 08:44:21;;;;;;;25.08;16.95;;;;;;;;;;4914649;29;20048;-68
2021/10/18 08:46:49;;;;;;;23.50;16.58;;;;;;;;;;4915003;29;20155;-68
2021/10/18 08:49:20;;;;;;;24.13;16.63;;;;;;;;;;4915701;29;20108;-70
2021/10/18 08:51:47;;;;;;;25.70;17.10;;;;;;;;;;4915809;29;20119;-68
2021/10/18 08:54:15;;;;;;;24.35;16.52;;;;;;;;;;4912076;29;20056;-68
2021/10/18 08:56:53;;;;;;;25.92;17.38;;;;;;;;;;4911508;29;20048;-71
2021/10/18 08:59:21;;;;;;;25.50;16.58;;;;;;;;;;4914891;29;20064;-74
2021/10/18 09:01:55;;;;;;;23.80;15.93;;;;;;;;;;4914922;29;20064;-75
2021/10/18 09:04:25;;;;;;;24.23;16.08;;;;;;;;;;4898313;29;20107;-75
2021/10/18 09:06:56;;;;;;;22.05;15.88;;;;;;;;;;4914861;29;20052;-73
2021/10/18 09:09:24;;;;;;;23.58;17.10;;;;;;;;;;4915328;29;20052;-72
2021/10/18 09:11:59;;;;;;;21.92;15.82;;;;;;;;;;4892698;29;20055;-74
2021/10/18 09:14:26;;;;;;;25.50;16.65;;;;;;;;;;4917307;29;20051;-72
2021/10/18 09:16:53;;;;;;;25.73;17.15;;;;;;;;;;4934143;29;20063;-74
2021/10/18 09:19:26;;;;;;;21.80;15.40;;;;;;;;;;4916868;29;20519;-73
2021/10/18 09:21:58;;;;;;;24.15;15.45;;;;;;;;;;4932693;29;20059;-75
2021/10/18 09:24:28;;;;;;;26.00;15.88;;;;;;;;;;4915404;29;20056;-71
2021/10/18 09:26:57;;;;;;;26.17;16.50;;;;;;;;;;4931979;29;20052;-69
2021/10/18 09:29:35;;;;;;;25.00;16.38;;;;;;;;;;4933110;29;20138;-70
2021/10/18 09:32:03;;;;;;;23.02;16.02;;;;;;;;;;4929685;29;20051;-69
2021/10/18 09:34:32;;;;;;;26.10;15.90;;;;;;;;;;4932102;29;20047;-70
2021/10/18 09:37:07;;;;;;;22.70;15.05;;;;;;;;;;4932635;29;20055;-71
2021/10/18 09:39:38;;;;;;;21.05;15.23;;;;;;;;;;4933696;29;20106;-70
2021/10/18 09:42:08;;;;;;;23.80;15.52;;;;;;;;;;4933230;29;20052;-72
2021/10/18 09:44:51;;;;;;;21.05;14.73;;;;;;;;;;4933273;29;20134;-69
2021/10/18 10:52:42;;;;;;;24.00;14.35;;;;;;;;;;4931937;29;20064;-69
2021/10/18 10:55:24;;;;;;;22.65;14.65;;;;;;;;;;4933293;29;20055;-68
2021/10/18 10:57:54;;;;;;;23.50;16.40;;;;;;;;;;4934541;29;20118;-68
2021/10/18 11:00:33;;;;;;;20.13;14.18;;;;;;;;;;4934196;29;20072;-69
2021/10/18 11:03:38;;;;;;;21.23;14.00;;;;;;;;;;4931669;29;20515;-70
2021/10/18 11:06:15;;;;;;;21.05;15.05;;;;;;;;;;4912472;29;20054;-69
2021/10/18 11:08:43;;;;;;;22.48;14.80;;;;;;;;;;4930055;29;20052;-69
2021/10/18 11:11:20;;;;;;;25.67;15.05;;;;;;;;;;4930665;29;20123;-72
2021/10/18 11:13:51;;;;;;;21.70;15.40;;;;;;;;;;4916936;29;20058;-71
2021/10/18 11:16:20;;;;;;;20.30;13.73;;;;;;;;;;4917613;29;20091;-71
2021/10/18 11:18:48;;;;;;;21.83;15.10;;;;;;;;;;4917199;29;20059;-71
2021/10/18 11:21:21;;;;;;;20.17;14.98;;;;;;;;;;4929830;29;20582;-70
2021/10/18 11:23:54;;;;;;;23.55;15.45;;;;;;;;;;4934094;29;20106;-69
2021/10/18 11:26:20;;;;;;;25.17;15.80;;;;;;;;;;4935767;29;20055;-70
2021/10/18 11:28:52;;;;;;;22.40;15.50;;;;;;;;;;4919059;29;20114;-70
2021/10/18 11:31:19;;;;;;;22.08;14.90;;;;;;;;;;4935195;29;20051;-72
2021/10/18 11:34:10;;;;;;;20.92;14.20;;;;;;;;;;4918611;29;20507;-73
2021/10/18 11:36:40;;;;;;;26.83;15.00;;;;;;;;;;4919861;29;20479;-72
2021/10/18 11:39:24;;;;;;;20.40;15.30;;;;;;;;;;4918502;29;20731;-72
2021/10/18 11:42:13;;;;;;;25.15;17.00;;;;;;;;;;4934332;29;20060;-72
2021/10/18 11:44:55;;;;;;;24.27;15.80;;;;;;;;;;4901874;29;20056;-72
2021/10/18 11:47:37;;;;;;;25.05;16.05;;;;;;;;;;4932289;29;20111;-73
2021/10/18 11:50:11;;;;;;;26.23;17.23;;;;;;;;;;4934282;29;20554;-74
2021/10/18 11:52:44;;;;;;;26.73;16.88;;;;;;;;;;4918344;29;20048;-74
2021/10/18 11:55:14;;;;;;;23.63;16.40;;;;;;;;;;4934660;29;20055;-74
2021/10/18 11:57:43;;;;;;;25.67;16.48;;;;;;;;;;4935666;29;20055;-74
2021/10/18 12:00:20;;;;;;;25.17;16.40;;;;;;;;;;4918140;29;20059;-75
2021/10/18 12:02:47;;;;;;;22.08;14.48;;;;;;;;;;4935235;29;20056;-73
2021/10/18 12:05:14;;;;;;;20.48;13.32;;;;;;;;;;4935257;29;20571;-73
2021/10/18 12:07:48;;;;;;;21.33;14.35;;;;;;;;;;4918429;29;20476;-71
2021/10/18 12:10:20;;;;;;;20.42;13.82;;;;;;;;;;4935181;29;20052;-71
2021/10/18 12:13:08;;;;;;;17.85;13.25;;;;;;;;;;4934694;29;20127;-71
2021/10/18 12:16:07;;;;;;;19.08;13.35;;;;;;;;;;4932835;29;20047;-72
2021/10/18 12:18:45;;;;;;;16.67;11.68;;;;;;;;;;4935070;29;20197;-68
2021/10/18 12:21:19;;;;;;;17.63;13.00;;;;;;;;;;4931350;29;20058;-69
2021/10/18 12:23:56;;;;;;;18.13;13.40;;;;;;;;;;4935308;29;20099;-69
2021/10/18 12:26:27;;;;;;;18.25;11.80;;;;;;;;;;4934773;29;20039;-71
2021/10/18 12:29:12;;;;;;;16.63;12.23;;;;;;;;;;4934668;29;20048;-70
2021/10/18 12:31:40;;;;;;;17.35;12.18;;;;;;;;;;4934498;29;20071;-68
2021/10/18 12:34:22;;;;;;;17.60;13.98;;;;;;;;;;4932871;29;20110;-68
2021/10/18 12:37:09;;;;;;;15.05;10.98;;;;;;;;;;4930435;29;20043;-68
2021/10/18 12:39:54;;;;;;;14.85;11.75;;;;;;;;;;4930953;29;20357;-68
2021/10/18 12:42:23;;;;;;;16.90;12.82;;;;;;;;;;4935106;29;20059;-68
2021/10/18 12:45:02;;;;;;;15.52;11.45;;;;;;;;;;4935550;29;20060;-68
2021/10/18 12:47:29;;;;;;;16.08;12.10;;;;;;;;;;4920209;29;20048;-68
2021/10/18 12:50:05;;;;;;;20.15;12.50;;;;;;;;;;4935069;29;20055;-68
2021/10/18 12:52:34;;;;;;;14.75;11.70;;;;;;;;;;4935523;29;20110;-68
2021/10/18 12:55:11;;;;;;;16.45;12.38;;;;;;;;;;4935478;29;20110;-68
2021/10/18 12:57:52;;;;;;;18.55;12.77;;;;;;;;;;4918771;29;20467;-68
2021/10/18 13:00:32;;;;;;;15.43;11.52;;;;;;;;;;4935937;29;20059;-68
2021/10/18 13:03:14;;;;;;;17.67;11.75;;;;;;;;;;4935051;29;20443;-68
2021/10/18 13:05:48;;;;;;;16.05;12.23;;;;;;;;;;4934786;29;20138;-68
2021/10/18 13:08:16;;;;;;;15.77;12.27;;;;;;;;;;4935266;29;20459;-68
2021/10/18 13:10:47;;;;;;;18.30;12.50;;;;;;;;;;4935172;29;20098;-68
2021/10/18 13:13:15;;;;;;;16.65;12.00;;;;;;;;;;4934906;29;20055;-68
2021/10/18 13:15:43;;;;;;;15.60;11.50;;;;;;;;;;4935101;29;20048;-68
2021/10/18 13:18:11;;;;;;;17.90;12.68;;;;;;;;;;4935230;29;20052;-68
2021/10/18 13:20:39;;;;;;;15.32;11.45;;;;;;;;;;4935254;29;20175;-68
2021/10/18 13:23:06;;;;;;;13.10;11.07;;;;;;;;;;4934640;29;20060;-68
2021/10/18 13:25:37;;;;;;;16.75;12.05;;;;;;;;;;4935186;29;20479;-68
2021/10/18 13:28:05;;;;;;;14.27;11.52;;;;;;;;;;4934885;29;20063;-68
2021/10/18 13:30:32;;;;;;;15.35;11.38;;;;;;;;;;4934836;29;20052;-68
2021/10/18 13:32:59;;;;;;;14.95;10.70;;;;;;;;;;4934612;29;20055;-68
2021/10/18 13:35:26;;;;;;;14.38;11.05;;;;;;;;;;4935058;29;20052;-68
2021/10/18 13:37:53;;;;;;;15.48;10.73;;;;;;;;;;4917864;29;20098;-68
2021/10/18 13:40:21;;;;;;;15.25;10.77;;;;;;;;;;4934787;29;20460;-68
2021/10/18 13:42:47;;;;;;;14.27;10.65;;;;;;;;;;4934587;29;20051;-68
2021/10/18 13:45:17;;;;;;;14.48;10.15;;;;;;;;;;4934786;29;20106;-68
2021/10/18 13:47:44;;;;;;;15.20;12.00;;;;;;;;;;4934688;29;20491;-68
2021/10/18 13:50:10;;;;;;;15.93;11.90;;;;;;;;;;4934849;29;20108;-68
2021/10/18 13:52:37;;;;;;;16.75;12.65;;;;;;;;;;4934711;29;20052;-68
2021/10/18 13:55:07;;;;;;;15.90;11.52;;;;;;;;;;4934623;29;20253;-68
2021/10/18 13:57:34;;;;;;;15.93;11.85;;;;;;;;;;4934517;29;20054;-68
2021/10/18 14:00:01;;;;;;;16.40;9.88;;;;;;;;;;4934550;29;20048;-68
2021/10/18 14:02:27;;;;;;;17.38;10.73;;;;;;;;;;4934365;29;20114;-68
2021/10/18 14:04:56;;;;;;;15.18;11.05;;;;;;;;;;4934534;29;20058;-68
2021/10/18 14:07:22;;;;;;;15.82;11.20;;;;;;;;;;4934597;29;20463;-68
2021/10/18 14:09:49;;;;;;;15.48;10.77;;;;;;;;;;4934488;29;20051;-67
2021/10/18 14:12:16;;;;;;;15.43;10.70;;;;;;;;;;4934157;29;20059;-68
2021/10/18 14:14:42;;;;;;;15.40;10.93;;;;;;;;;;4934572;29;20467;-68
2021/10/18 14:17:09;;;;;;;15.65;10.98;;;;;;;;;;4937267;29;20052;-68
2021/10/18 14:19:36;;;;;;;16.30;10.23;;;;;;;;;;4938441;29;20063;-68
2021/10/18 14:22:04;;;;;;;14.77;10.23;;;;;;;;;;4938073;29;20052;-68
2021/10/18 14:24:32;;;;;;;14.13;9.95;;;;;;;;;;4938381;29;20047;-68
2021/10/18 14:27:00;;;;;;;15.30;10.88;;;;;;;;;;4938065;29;20047;-68
2021/10/18 14:29:27;;;;;;;16.10;10.57;;;;;;;;;;4938243;29;20134;-68
2021/10/18 14:31:54;;;;;;;18.10;10.52;;;;;;;;;;4937724;29;20095;-68
2021/10/18 14:34:21;;;;;;;14.15;9.95;;;;;;;;;;4938011;29;20055;-68
2021/10/18 14:36:48;;;;;;;13.80;9.95;;;;;;;;;;4937510;29;20451;-68
2021/10/18 14:39:15;;;;;;;14.05;9.65;;;;;;;;;;4936839;29;20055;-66
2021/10/18 14:41:41;;;;;;;12.43;8.73;;;;;;;;;;4937762;29;20102;-68
2021/10/18 14:44:09;;;;;;;13.15;9.00;;;;;;;;;;4937484;29;20530;-67
2021/10/18 14:46:36;;;;;;;14.77;9.98;;;;;;;;;;4935683;29;20048;-70
2021/10/18 14:49:03;;;;;;;14.10;10.73;;;;;;;;;;4937285;29;20507;-70
2021/10/18 14:51:29;;;;;;;12.90;9.27;;;;;;;;;;4923833;29;20507;-75
2021/10/18 14:53:59;;;;;;;14.48;10.13;;;;;;;;;;4934413;29;20463;-76
2021/10/18 14:56:29;;;;;;;14.27;9.90;;;;;;;;;;4919452;29;20051;-70
2021/10/18 14:58:57;;;;;;;14.35;10.20;;;;;;;;;;4935434;29;20505;-74
2021/10/18 15:01:24;;;;;;;11.40;9.20;;;;;;;;;;4936451;29;20503;-71
2021/10/18 15:03:56;;;;;;;14.35;10.15;;;;;;;;;;4936026;29;20162;-73
2021/10/18 15:06:24;;;;;;;15.43;10.50;;;;;;;;;;4936334;29;20052;-71
2021/10/18 15:08:52;;;;;;;13.85;9.13;;;;;;;;;;4936068;29;20051;-69
2021/10/18 15:11:19;;;;;;;12.52;8.73;;;;;;;;;;4935925;29;20503;-69
2021/10/18 15:13:48;;;;;;;12.65;8.90;;;;;;;;;;4936017;29;20447;-73
2021/10/18 15:16:15;;;;;;;12.75;9.00;;;;;;;;;;4919113;29;20055;-69
2021/10/18 15:18:42;;;;;;;14.57;10.30;;;;;;;;;;4934440;29;20059;-70
2021/10/18 15:21:11;;;;;;;15.57;9.82;;;;;;;;;;4936225;29;20102;-76
2021/10/18 15:23:38;;;;;;;13.70;9.35;;;;;;;;;;4904319;29;20111;-74
2021/10/18 15:26:07;;;;;;;13.73;10.15;;;;;;;;;;4935946;29;20052;-76
2021/10/18 15:28:34;;;;;;;12.95;8.98;;;;;;;;;;4918783;29;20052;-75
2021/10/18 15:31:02;;;;;;;14.70;9.48;;;;;;;;;;4936037;29;20055;-73
2021/10/18 15:33:30;;;;;;;12.57;9.38;;;;;;;;;;4931961;29;20499;-71
2021/10/18 15:35:57;;;;;;;12.65;9.90;;;;;;;;;;4934281;29;20063;-69